Terminal Aerodrome Forecast
Issued by NWS Los Angeles, CA

Home | Current Version | Previous Version | Text Only | Print | Product List | Glossary On
Versions: 1 2 3 4 5 6 7 8 9 10 11 12 13 14 15 16 17 18 19 20 21 22 23 24 25 26 27
615
FTUS46 KLOX 101501 AAB
TAFSMX
TAF AMD
KSMX 101501Z 1015/1112 VRB03KT 1/2SM FG VV001
     FM101630 VRB03KT 1SM BR OVC003
     FM101800 VRB03KT 3SM BR SCT006 OVC010
     FM101900 28010KT P6SM VCSH SCT015 OVC025
     FM110200 VRB03KT 5SM -RA BR OVC015
     FM110900 VRB03KT P6SM OVC015=

USA.gov is the U.S. government's official web portal to all federal, state and local government web resources and services.